Time;durP1;ratioP1;P1;durP2;ratioP2;P2;SDS_P1;SDS_P2;PMS_P1;PMS_P2;Temp;Humidity;BMP_temperature;BMP_pressure;BME280_temperature;BME280_humidity;BME280_pressure;Samples;Min_cycle;Max_cycle;Signal;HPM_P1;HPM_P2
2023/06/19 00:01:48;;;;;;;1.60;1.50;;;18.30;95.60;;;;;;5017273;28;20175;-72
2023/06/19 00:04:14;;;;;;;1.83;1.73;;;;;;;;;;5017352;28;20171;-73
2023/06/19 00:06:39;;;;;;;2.63;1.93;;;18.40;99.90;;;;;;5017241;28;20182;-72
2023/06/19 00:09:06;;;;;;;1.73;1.40;;;18.30;95.50;;;;;;4999474;28;20470;-72
2023/06/19 00:11:32;;;;;;;1.03;1.03;;;18.30;95.70;;;;;;5017080;28;20186;-71
2023/06/19 00:13:58;;;;;;;1.67;1.57;;;18.30;95.80;;;;;;5017324;28;20403;-72
2023/06/19 00:16:25;;;;;;;1.83;1.73;;;18.30;96.10;;;;;;5017256;28;20172;-72
2023/06/19 00:18:51;;;;;;;3.23;3.00;;;18.20;96.60;;;;;;5016965;28;20194;-72
2023/06/19 00:21:17;;;;;;;2.63;2.43;;;18.10;97.10;;;;;;5016864;28;20410;-71
2023/06/19 00:23:42;;;;;;;1.13;1.03;;;18.00;97.70;;;;;;5017209;28;20417;-72
2023/06/19 00:26:08;;;;;;;2.40;2.30;;;18.10;97.40;;;;;;5017003;28;20421;-72
2023/06/19 00:28:34;;;;;;;2.50;2.20;;;18.20;97.20;;;;;;5016765;28;20211;-72
2023/06/19 00:31:00;;;;;;;1.57;1.47;;;18.30;97.30;;;;;;5016823;28;20175;-71
2023/06/19 00:33:25;;;;;;;1.63;1.53;;;18.30;97.90;;;;;;5017020;28;20168;-72
2023/06/19 00:35:51;;;;;;;1.93;1.70;;;18.30;98.00;;;;;;5016829;28;20176;-71
2023/06/19 00:38:17;;;;;;;1.77;1.67;;;18.20;98.10;;;;;;5016659;28;20196;-73
2023/06/19 00:40:43;;;;;;;2.50;2.40;;;18.20;98.40;;;;;;5016931;28;20415;-70
2023/06/19 00:43:09;;;;;;;3.30;3.00;;;18.20;98.10;;;;;;5016613;28;20286;-70
2023/06/19 00:45:37;;;;;;;2.57;2.30;;;18.30;98.20;;;;;;5016763;28;20184;-70
2023/06/19 00:48:04;;;;;;;2.60;2.40;;;18.50;98.00;;;;;;5016596;28;20453;-72
2023/06/19 00:50:30;;;;;;;1.73;1.63;;;18.70;97.90;;;;;;4998911;28;20953;-72
2023/06/19 00:52:57;;;;;;;1.27;1.27;;;18.80;97.60;;;;;;5016425;28;20403;-71
2023/06/19 00:55:25;;;;;;;1.93;1.83;;;19.00;97.40;;;;;;5016543;28;20428;-73
2023/06/19 00:57:52;;;;;;;1.70;1.60;;;19.20;97.10;;;;;;5016298;28;20503;-71
2023/06/19 01:00:18;;;;;;;2.03;1.73;;;19.30;96.80;;;;;;5016407;28;20433;-72
2023/06/19 01:02:43;;;;;;;1.30;1.20;;;19.40;96.30;;;;;;4998745;28;20421;-72
2023/06/19 01:05:09;;;;;;;2.30;2.03;;;19.50;96.10;;;;;;5016270;28;20186;-73
2023/06/19 01:07:59;;;;;;;1.73;1.63;;;19.60;95.90;;;;;;5016036;28;20200;-70
2023/06/19 01:10:30;;;;;;;1.90;1.63;;;19.70;96.40;;;;;;5015748;28;20236;-71
2023/06/19 01:13:10;;;;;;;2.43;1.70;;;19.60;96.00;;;;;;5015914;28;20455;-70
2023/06/19 01:15:38;;;;;;;1.43;1.33;;;19.80;96.00;;;;;;5016503;28;20400;-73
2023/06/19 01:18:04;;;;;;;1.20;1.17;;;19.80;95.80;;;;;;5015915;28;20431;-71
2023/06/19 01:20:31;;;;;;;2.10;2.00;;;19.70;97.10;;;;;;5016098;28;20440;-73
2023/06/19 01:22:56;;;;;;;2.10;2.00;;;19.70;98.20;;;;;;5016036;28;20412;-73
2023/06/19 01:25:24;;;;;;;2.17;2.07;;;19.60;99.90;;;;;;5016221;28;20748;-73
2023/06/19 01:27:50;;;;;;;1.17;1.00;;;19.30;99.90;;;;;;5016076;28;20193;-71
2023/06/19 01:30:16;;;;;;;3.63;2.30;;;19.10;99.90;;;;;;5015892;28;20459;-73
2023/06/19 01:32:56;;;;;;;0.80;0.80;;;19.00;99.90;;;;;;5015792;28;20543;-72
2023/06/19 01:35:39;;;;;;;2.50;2.10;;;18.90;99.90;;;;;;5015948;28;20399;-73
2023/06/19 01:38:07;;;;;;;1.13;1.13;;;18.80;99.90;;;;;;5015755;28;20434;-72
2023/06/19 01:40:34;;;;;;;1.80;1.80;;;18.70;99.90;;;;;;4998136;28;20411;-71
2023/06/19 01:43:00;;;;;;;1.70;1.60;;;18.60;99.90;;;;;;5015569;28;20798;-71
2023/06/19 01:45:29;;;;;;;1.57;1.40;;;18.50;99.90;;;;;;5015852;28;20410;-71
2023/06/19 01:47:55;;;;;;;2.00;1.90;;;18.50;99.90;;;;;;5015540;28;20783;-71
2023/06/19 01:50:22;;;;;;;14.43;2.77;;;18.40;99.90;;;;;;5015527;28;20462;-70
2023/06/19 01:52:49;;;;;;;0.80;0.80;;;18.40;99.90;;;;;;5015299;28;20446;-71
2023/06/19 01:55:15;;;;;;;2.53;2.33;;;18.40;99.90;;;;;;5015611;28;20396;-70
2023/06/19 01:57:40;;;;;;;2.27;1.83;;;18.30;99.90;;;;;;5015333;28;20445;-69
2023/06/19 02:00:10;;;;;;;1.50;1.40;;;18.30;99.90;;;;;;5015481;28;20175;-73
2023/06/19 02:02:38;;;;;;;1.23;1.23;;;18.20;99.90;;;;;;5015103;28;20225;-71
2023/06/19 02:05:04;;;;;;;1.10;1.03;;;18.10;99.90;;;;;;5015407;28;20903;-72
2023/06/19 02:07:30;;;;;;;1.90;1.80;;;18.20;99.90;;;;;;5015347;28;20445;-73
2023/06/19 02:09:57;;;;;;;1.40;1.30;;;18.20;99.90;;;;;;5015033;28;20530;-71
2023/06/19 02:12:23;;;;;;;1.33;1.00;;;18.20;99.90;;;;;;5015045;28;20403;-72
2023/06/19 02:14:48;;;;;;;2.80;2.57;;;18.20;99.90;;;;;;5015173;28;20460;-73
2023/06/19 02:17:14;;;;;;;3.70;1.93;;;18.20;99.90;;;;;;5015019;28;20325;-70
2023/06/19 02:19:39;;;;;;;3.50;2.53;;;18.20;99.90;;;;;;5014926;28;20185;-72
2023/06/19 02:22:06;;;;;;;1.17;0.90;;;18.10;99.90;;;;;;5013946;28;20179;-72
2023/06/19 02:24:32;;;;;;;1.63;1.53;;;18.00;99.90;;;;;;5014953;28;20182;-69
2023/06/19 02:26:58;;;;;;;1.60;1.40;;;;;;;;;;5014748;28;20428;-73
2023/06/19 02:29:24;;;;;;;1.17;1.07;;;17.80;99.90;;;;;;5014773;28;20954;-70
2023/06/19 02:31:50;;;;;;;1.73;1.63;;;17.70;99.90;;;;;;5014671;28;20493;-72
2023/06/19 02:34:17;;;;;;;0.60;0.60;;;17.50;99.90;;;;;;5014830;28;20837;-73
2023/06/19 02:36:42;;;;;;;1.70;1.60;;;17.20;99.90;;;;;;5014624;28;20472;-73
2023/06/19 02:39:09;;;;;;;2.00;1.90;;;17.50;99.90;;;;;;5014624;28;20895;-73
2023/06/19 02:41:35;;;;;;;1.23;1.13;;;17.40;99.90;;;;;;5014434;28;20600;-72
2023/06/19 02:44:01;;;;;;;2.40;2.20;;;17.30;99.90;;;;;;5014763;28;20494;-72
2023/06/19 02:46:27;;;;;;;0.97;0.97;;;;;;;;;;5014659;28;20508;-72
2023/06/19 02:48:52;;;;;;;1.13;0.93;;;17.40;99.90;;;;;;4996686;28;20203;-72
2023/06/19 02:51:18;;;;;;;2.27;2.17;;;17.40;99.90;;;;;;5014638;28;20777;-70
2023/06/19 02:53:44;;;;;;;0.70;0.70;;;17.30;99.90;;;;;;5014427;28;20168;-72
2023/06/19 02:56:13;;;;;;;1.47;1.10;;;17.30;99.90;;;;;;5014566;28;20186;-72
2023/06/19 02:58:39;;;;;;;1.27;1.20;;;17.40;99.90;;;;;;5014219;28;20668;-71
2023/06/19 03:01:08;;;;;;;1.10;1.10;;;17.30;99.90;;;;;;5014451;28;20437;-73
2023/06/19 03:03:37;;;;;;;0.70;0.70;;;17.30;99.90;;;;;;5014100;28;20414;-72
2023/06/19 03:06:06;;;;;;;0.90;0.90;;;17.30;99.90;;;;;;5014157;28;20902;-70
2023/06/19 03:08:33;;;;;;;1.97;1.80;;;17.20;99.90;;;;;;5013887;28;20929;-71
2023/06/19 03:10:59;;;;;;;1.20;1.20;;;17.20;99.90;;;;;;5014023;28;20485;-71
2023/06/19 03:13:25;;;;;;;1.47;1.30;;;17.20;99.90;;;;;;5014311;28;20898;-70
2023/06/19 03:15:50;;;;;;;1.13;1.07;;;17.20;99.90;;;;;;5014217;28;20518;-71
2023/06/19 03:18:16;;;;;;;0.87;0.87;;;17.30;99.90;;;;;;5013999;28;20226;-72
2023/06/19 03:20:42;;;;;;;1.30;1.20;;;17.30;99.90;;;;;;4996379;28;20183;-72
2023/06/19 03:23:07;;;;;;;1.70;1.47;;;17.30;99.90;;;;;;5013874;28;20184;-73
2023/06/19 03:25:34;;;;;;;0.90;0.90;;;17.30;99.90;;;;;;5014055;28;20627;-73
2023/06/19 03:28:04;;;;;;;1.07;1.07;;;17.40;99.90;;;;;;5013944;28;20188;-70
2023/06/19 03:30:30;;;;;;;1.33;1.07;;;17.40;99.90;;;;;;5013261;28;20472;-70
2023/06/19 03:32:56;;;;;;;0.90;0.90;;;17.40;99.90;;;;;;5013632;28;20802;-70
2023/06/19 03:35:21;;;;;;;1.43;1.20;;;17.30;99.90;;;;;;5013783;28;20453;-71
2023/06/19 03:37:47;;;;;;;0.67;0.67;;;17.30;99.90;;;;;;5013803;28;20238;-71
2023/06/19 03:40:13;;;;;;;1.50;1.17;;;17.30;99.90;;;;;;5013720;28;20195;-72
2023/06/19 03:42:42;;;;;;;1.27;1.17;;;17.30;99.90;;;;;;5013574;28;20188;-73
2023/06/19 03:45:08;;;;;;;4.00;3.10;;;17.30;99.90;;;;;;5013689;28;20464;-72
2023/06/19 03:47:33;;;;;;;1.13;1.03;;;17.40;99.90;;;;;;5013505;28;20430;-72
2023/06/19 03:49:59;;;;;;;3.80;1.70;;;17.40;99.90;;;;;;5013597;28;20465;-70
2023/06/19 03:52:25;;;;;;;1.60;1.50;;;17.40;99.90;;;;;;5013619;28;20656;-71
2023/06/19 03:54:50;;;;;;;0.80;0.80;;;17.50;99.90;;;;;;5013705;28;20195;-72
2023/06/19 03:57:16;;;;;;;2.03;1.93;;;17.50;99.90;;;;;;5013545;28;20257;-72
2023/06/19 03:59:42;;;;;;;1.63;1.17;;;;;;;;;;5013580;28;20269;-73
2023/06/19 04:02:07;;;;;;;1.27;1.17;;;17.70;99.90;;;;;;5013366;28;20663;-73
2023/06/19 04:04:33;;;;;;;1.50;1.40;;;17.70;99.90;;;;;;5013644;28;20464;-71
2023/06/19 04:07:01;;;;;;;0.93;0.93;;;17.60;99.90;;;;;;5013538;28;20680;-70
2023/06/19 04:09:27;;;;;;;1.33;1.23;;;17.60;99.90;;;;;;5013251;28;20230;-70
2023/06/19 04:11:52;;;;;;;1.50;1.40;;;17.60;99.90;;;;;;5013450;28;20406;-71
2023/06/19 04:14:18;;;;;;;0.60;0.60;;;17.60;99.90;;;;;;5013728;28;20163;-72
2023/06/19 04:16:44;;;;;;;1.77;1.67;;;17.50;99.90;;;;;;5013472;28;20171;-70
2023/06/19 04:19:09;;;;;;;0.40;0.40;;;17.60;99.90;;;;;;5013399;28;20230;-73
2023/06/19 04:21:35;;;;;;;1.13;1.03;;;17.60;99.90;;;;;;5013316;28;20175;-72
2023/06/19 04:24:00;;;;;;;1.93;1.83;;;17.60;99.90;;;;;;5013499;28;20179;-72
2023/06/19 04:26:26;;;;;;;0.70;0.70;;;17.60;99.90;;;;;;5013290;28;20183;-71
2023/06/19 04:28:52;;;;;;;0.93;0.93;;;17.60;99.90;;;;;;5013137;28;20289;-72
2023/06/19 04:31:21;;;;;;;1.23;0.90;;;17.60;99.90;;;;;;5013276;28;20721;-72
2023/06/19 04:33:47;;;;;;;1.53;1.43;;;17.60;99.90;;;;;;5013388;28;20191;-71
2023/06/19 04:36:12;;;;;;;2.90;1.30;;;17.60;99.90;;;;;;5013424;28;20440;-72
2023/06/19 04:38:38;;;;;;;3.13;2.83;;;;;;;;;;5013141;28;20194;-72
2023/06/19 04:41:04;;;;;;;1.67;1.57;;;17.70;99.90;;;;;;5013038;28;20529;-71
2023/06/19 04:43:29;;;;;;;1.07;1.07;;;17.70;99.90;;;;;;5013220;28;20456;-72
2023/06/19 04:45:55;;;;;;;1.33;0.87;;;17.80;99.90;;;;;;5015493;28;20171;-71
2023/06/19 04:48:25;;;;;;;2.53;1.87;;;17.80;99.90;;;;;;5016562;28;20549;-70
2023/06/19 04:50:52;;;;;;;1.10;1.10;;;17.80;99.90;;;;;;5016928;28;20543;-73
2023/06/19 04:53:17;;;;;;;1.23;0.87;;;17.90;99.90;;;;;;5016643;28;20405;-70
2023/06/19 04:55:43;;;;;;;1.47;1.37;;;17.90;99.90;;;;;;5016609;28;20408;-72
2023/06/19 04:58:09;;;;;;;1.93;1.83;;;18.00;99.90;;;;;;5016678;28;20248;-71
2023/06/19 05:00:35;;;;;;;1.20;1.20;;;18.10;99.90;;;;;;5016410;28;20175;-71
2023/06/19 05:03:00;;;;;;;0.70;0.70;;;18.20;99.90;;;;;;5016455;28;20168;-70
2023/06/19 05:05:30;;;;;;;1.53;1.07;;;18.30;99.90;;;;;;5016778;28;20730;-70
2023/06/19 05:07:55;;;;;;;1.50;1.40;;;18.40;99.90;;;;;;5016278;28;20200;-73
2023/06/19 05:10:21;;;;;;;1.67;1.57;;;18.50;99.90;;;;;;5016347;28;20487;-70
2023/06/19 05:12:47;;;;;;;1.40;1.30;;;18.60;99.90;;;;;;5016220;28;20666;-71
2023/06/19 05:15:12;;;;;;;0.90;0.90;;;18.80;99.90;;;;;;5016365;28;20176;-69
2023/06/19 05:17:38;;;;;;;1.33;1.23;;;18.90;99.90;;;;;;5016368;28;20528;-71
2023/06/19 05:20:07;;;;;;;2.10;2.00;;;19.00;99.90;;;;;;5016160;28;20185;-71
2023/06/19 05:22:33;;;;;;;1.70;1.60;;;19.10;99.90;;;;;;5015940;28;20185;-70
2023/06/19 05:25:00;;;;;;;3.40;1.70;;;19.20;99.90;;;;;;5016305;28;20411;-74
2023/06/19 05:27:25;;;;;;;1.33;1.23;;;19.40;99.90;;;;;;5016112;28;20440;-73
2023/06/19 05:29:51;;;;;;;2.47;2.30;;;19.50;99.90;;;;;;5015901;28;20457;-73
2023/06/19 05:32:16;;;;;;;1.57;1.47;;;19.70;99.90;;;;;;5015660;28;20300;-73
2023/06/19 05:34:42;;;;;;;1.47;1.37;;;19.90;99.90;;;;;;5016000;28;20253;-69
2023/06/19 05:37:08;;;;;;;2.43;2.33;;;20.10;99.90;;;;;;5015839;28;20561;-71
2023/06/19 05:39:33;;;;;;;2.33;2.00;;;20.30;99.90;;;;;;5015734;28;20175;-73
2023/06/19 05:41:59;;;;;;;1.00;1.00;;;20.60;99.90;;;;;;5015529;28;20201;-73
2023/06/19 05:44:24;;;;;;;1.33;1.17;;;21.10;99.90;;;;;;5015671;28;20174;-73
2023/06/19 05:46:50;;;;;;;1.63;1.53;;;21.30;99.90;;;;;;5015646;28;20192;-71
2023/06/19 05:49:16;;;;;;;1.50;1.40;;;21.50;99.90;;;;;;5015436;28;20197;-73
2023/06/19 05:51:41;;;;;;;1.37;1.27;;;21.70;99.90;;;;;;5015346;28;20549;-73
2023/06/19 05:54:07;;;;;;;1.00;0.83;;;21.80;99.90;;;;;;5015598;28;20202;-73
2023/06/19 05:56:33;;;;;;;2.80;0.83;;;21.60;99.90;;;;;;5014111;28;20179;-72
2023/06/19 05:59:02;;;;;;;1.63;1.53;;;21.70;99.90;;;;;;5015304;28;20606;-72
2023/06/19 06:01:29;;;;;;;1.23;1.23;;;21.50;99.90;;;;;;5015195;28;20409;-74
2023/06/19 06:03:55;;;;;;;1.03;0.70;;;21.40;99.90;;;;;;5015399;28;20436;-71
2023/06/19 06:06:22;;;;;;;2.03;1.30;;;21.50;99.90;;;;;;5015564;28;20418;-71
2023/06/19 06:08:48;;;;;;;2.30;2.20;;;21.70;99.90;;;;;;5014840;28;20545;-72
2023/06/19 06:11:13;;;;;;;2.80;1.60;;;22.10;99.70;;;;;;5014830;28;20510;-73
2023/06/19 06:13:39;;;;;;;1.63;1.50;;;22.60;98.50;;;;;;5015128;28;20222;-73
2023/06/19 06:16:05;;;;;;;1.10;0.97;;;23.50;98.60;;;;;;5014888;28;20297;-73
2023/06/19 06:18:30;;;;;;;1.40;0.80;;;24.30;96.20;;;;;;5014808;28;20279;-73
2023/06/19 06:20:56;;;;;;;2.70;0.90;;;24.60;95.40;;;;;;5015093;28;20210;-71
2023/06/19 06:23:22;;;;;;;1.27;1.17;;;24.90;94.00;;;;;;5015002;28;20250;-71
2023/06/19 06:25:48;;;;;;;1.57;1.47;;;24.90;92.80;;;;;;5015148;28;20173;-70
2023/06/19 06:28:14;;;;;;;0.87;0.87;;;25.50;93.40;;;;;;5014561;28;20549;-72
2023/06/19 06:30:40;;;;;;;1.40;1.30;;;26.90;90.90;;;;;;5014801;28;20635;-74
2023/06/19 06:33:05;;;;;;;2.40;1.27;;;28.00;84.80;;;;;;5014477;28;20407;-74
2023/06/19 06:35:31;;;;;;;1.33;1.23;;;28.00;81.60;;;;;;5015235;28;20176;-72
2023/06/19 06:37:57;;;;;;;1.17;1.07;;;27.90;79.70;;;;;;5014516;28;20198;-71
2023/06/19 06:40:22;;;;;;;1.60;1.50;;;28.10;81.10;;;;;;5014559;28;20179;-72
2023/06/19 06:42:49;;;;;;;1.47;1.37;;;28.30;78.30;;;;;;5014471;28;20167;-72
2023/06/19 06:45:14;;;;;;;1.63;1.40;;;28.60;76.10;;;;;;5014507;28;20164;-72
2023/06/19 06:47:40;;;;;;;0.90;0.90;;;29.10;75.30;;;;;;5014375;28;20484;-73
2023/06/19 06:50:07;;;;;;;1.40;1.10;;;29.20;73.90;;;;;;5014222;28;20286;-71
2023/06/19 06:52:33;;;;;;;2.63;1.33;;;29.40;72.50;;;;;;5014084;28;20577;-72
2023/06/19 06:54:58;;;;;;;0.93;0.93;;;29.50;70.60;;;;;;5014346;28;20402;-72
2023/06/19 06:57:24;;;;;;;1.30;1.20;;;29.70;69.10;;;;;;5014297;28;20188;-74
2023/06/19 06:59:50;;;;;;;2.30;1.40;;;30.40;67.90;;;;;;5014185;28;20180;-72
2023/06/19 07:02:16;;;;;;;1.03;0.93;;;31.40;65.50;;;;;;5013979;28;20422;-72
2023/06/19 07:04:41;;;;;;;1.47;1.37;;;31.50;61.70;;;;;;5014269;28;20168;-74
2023/06/19 07:07:08;;;;;;;1.57;1.40;;;30.90;62.80;;;;;;5013915;28;20210;-73
2023/06/19 07:09:34;;;;;;;1.40;1.33;;;29.90;64.60;;;;;;5013727;28;20199;-73
2023/06/19 07:12:01;;;;;;;1.67;1.30;;;29.70;68.30;;;;;;5014034;28;20421;-73
2023/06/19 07:14:27;;;;;;;1.70;1.60;;;29.60;67.00;;;;;;5014151;28;20163;-72
2023/06/19 07:16:53;;;;;;;1.57;1.47;;;29.70;67.30;;;;;;4996432;28;20846;-72
2023/06/19 07:19:18;;;;;;;1.50;1.40;;;29.60;65.00;;;;;;5013926;28;20171;-71
2023/06/19 07:21:44;;;;;;;1.60;1.50;;;29.30;66.20;;;;;;5013861;28;20698;-73
2023/06/19 07:24:10;;;;;;;1.43;1.33;;;28.70;66.50;;;;;;5013829;28;20171;-73
2023/06/19 07:26:35;;;;;;;1.70;1.50;;;27.10;77.40;;;;;;5013842;28;20168;-71
2023/06/19 07:29:01;;;;;;;1.80;1.70;;;27.40;71.20;;;;;;5013759;28;20572;-73
2023/06/19 07:31:27;;;;;;;2.03;1.43;;;27.20;73.40;;;;;;5013589;28;20592;-71
2023/06/19 07:33:52;;;;;;;2.00;1.50;;;27.10;72.40;;;;;;5013591;28;20178;-73
2023/06/19 07:36:18;;;;;;;1.83;1.20;;;27.00;73.10;;;;;;5013872;28;20186;-73
2023/06/19 07:38:44;;;;;;;1.27;1.20;;;27.10;75.30;;;;;;5013595;28;20690;-71
2023/06/19 07:41:11;;;;;;;2.03;1.83;;;27.50;74.80;;;;;;5013528;28;20239;-75
2023/06/19 07:43:37;;;;;;;1.50;1.30;;;27.70;71.80;;;;;;5013783;28;20441;-72
2023/06/19 07:46:03;;;;;;;2.30;1.80;;;27.80;71.00;;;;;;5013513;28;20506;-72
2023/06/19 07:48:29;;;;;;;2.33;1.73;;;28.10;70.40;;;;;;5013405;28;20445;-73
2023/06/19 07:50:55;;;;;;;1.50;1.40;;;28.00;69.70;;;;;;5013600;28;20377;-73
2023/06/19 07:53:20;;;;;;;1.77;1.67;;;27.50;71.60;;;;;;5013510;28;20164;-73
2023/06/19 07:55:46;;;;;;;1.73;1.63;;;26.80;72.70;;;;;;5013664;28;20533;-74
2023/06/19 07:58:12;;;;;;;1.93;1.83;;;26.50;74.10;;;;;;5013318;28;20533;-73
2023/06/19 08:00:38;;;;;;;1.87;1.73;;;26.70;74.80;;;;;;5013355;28;20168;-73
2023/06/19 08:03:04;;;;;;;1.70;1.60;;;27.40;72.00;;;;;;5013197;28;20403;-73
2023/06/19 08:05:30;;;;;;;3.10;2.00;;;28.50;71.10;;;;;;5013378;28;20168;-73
2023/06/19 08:07:56;;;;;;;2.53;1.90;;;29.50;66.60;;;;;;5013172;28;20517;-74
2023/06/19 08:10:22;;;;;;;1.80;1.70;;;30.30;63.90;;;;;;5013496;28;20218;-74
2023/06/19 08:12:48;;;;;;;1.47;1.37;;;31.60;63.80;;;;;;5013313;28;20907;-72
2023/06/19 08:15:13;;;;;;;2.27;2.17;;;33.40;57.40;;;;;;5013401;28;20168;-72
2023/06/19 08:17:40;;;;;;;2.60;1.83;;;35.10;56.60;;;;;;5013148;28;20195;-70
2023/06/19 08:20:06;;;;;;;3.33;1.90;;;35.70;51.20;;;;;;5014327;28;20167;-71
2023/06/19 08:22:32;;;;;;;2.10;1.90;;;35.30;51.80;;;;;;5017002;28;20405;-72
2023/06/19 08:24:58;;;;;;;2.40;1.93;;;35.80;51.30;;;;;;5016922;28;20798;-72
2023/06/19 08:27:24;;;;;;;1.97;1.77;;;36.40;48.70;;;;;;5017096;28;20437;-73
2023/06/19 08:29:49;;;;;;;1.50;1.40;;;36.80;46.20;;;;;;5016813;28;20195;-71
2023/06/19 08:32:16;;;;;;;1.60;1.50;;;37.30;45.70;;;;;;5016905;28;20168;-70
2023/06/19 08:34:42;;;;;;;1.40;1.30;;;37.20;45.10;;;;;;5016919;28;20183;-72
2023/06/19 08:37:08;;;;;;;2.87;1.80;;;36.80;43.60;;;;;;5016670;28;20422;-70
2023/06/19 08:39:35;;;;;;;1.57;1.47;;;36.10;43.40;;;;;;5016761;28;20168;-72
2023/06/19 08:42:01;;;;;;;1.63;1.50;;;35.80;44.10;;;;;;5016542;28;20407;-72
2023/06/19 08:44:27;;;;;;;2.63;2.37;;;35.40;45.20;;;;;;5016825;28;20421;-69
2023/06/19 08:46:52;;;;;;;1.30;1.20;;;35.20;44.90;;;;;;5016595;28;20187;-71
2023/06/19 08:49:18;;;;;;;1.93;1.83;;;35.40;44.90;;;;;;5016701;28;20709;-71
2023/06/19 08:51:44;;;;;;;1.30;1.20;;;35.10;44.60;;;;;;5016442;28;20251;-72
2023/06/19 08:54:09;;;;;;;1.90;1.80;;;35.00;45.70;;;;;;5016653;28;20534;-69
2023/06/19 08:56:37;;;;;;;1.57;1.47;;;35.20;45.20;;;;;;5016513;28;20578;-72
2023/06/19 08:59:12;;;;;;;2.00;1.90;;;35.30;42.30;;;;;;5016367;28;20164;-70
2023/06/19 09:01:38;;;;;;;2.63;1.70;;;34.20;43.40;;;;;;5016163;28;20413;-69
2023/06/19 09:04:11;;;;;;;1.87;1.30;;;32.70;46.30;;;;;;5016399;28;20452;-69
2023/06/19 09:06:49;;;;;;;2.17;1.60;;;31.20;52.30;;;;;;5016260;28;20840;-71
2023/06/19 09:09:15;;;;;;;1.60;1.43;;;30.80;49.40;;;;;;5016129;28;20472;-71
2023/06/19 09:11:44;;;;;;;1.30;1.20;;;30.50;48.40;;;;;;5016079;28;20453;-72
2023/06/19 09:14:11;;;;;;;1.93;1.23;;;30.10;47.40;;;;;;5016308;28;20489;-72
2023/06/19 09:16:41;;;;;;;2.20;2.00;;;31.40;50.60;;;;;;5016049;28;20494;-70
2023/06/19 09:19:07;;;;;;;1.77;1.47;;;31.80;47.60;;;;;;5016103;28;20947;-70
2023/06/19 09:21:37;;;;;;;2.70;1.83;;;33.40;44.90;;;;;;5015937;28;20438;-72
2023/06/19 09:24:07;;;;;;;1.93;1.80;;;34.50;41.80;;;;;;5016055;28;20468;-71
2023/06/19 09:26:33;;;;;;;1.33;1.23;;;35.10;41.70;;;;;;5016200;28;20403;-71
2023/06/19 09:29:13;;;;;;;1.40;1.30;;;35.20;39.50;;;;;;5015699;28;20576;-71
2023/06/19 09:31:41;;;;;;;1.77;1.67;;;35.60;39.60;;;;;;5015553;28;20410;-71
2023/06/19 09:34:07;;;;;;;1.20;1.10;;;35.80;38.80;;;;;;5015927;28;20545;-72
2023/06/19 09:36:34;;;;;;;1.90;1.60;;;34.90;41.40;;;;;;5015766;28;20505;-73
2023/06/19 09:39:01;;;;;;;1.27;1.17;;;35.10;38.70;;;;;;5015606;28;20402;-71
2023/06/19 09:41:29;;;;;;;1.77;1.50;;;36.00;38.50;;;;;;5015526;28;20480;-72
2023/06/19 09:43:59;;;;;;;1.03;1.00;;;35.30;36.40;;;;;;5015730;28;20770;-71
2023/06/19 09:46:32;;;;;;;2.27;1.40;;;35.40;37.50;;;;;;5015639;28;20493;-73
2023/06/19 09:49:01;;;;;;;1.53;1.43;;;35.80;38.40;;;;;;5015588;28;20876;-72
2023/06/19 09:51:32;;;;;;;1.37;1.20;;;36.40;39.60;;;;;;5015547;28;20457;-72
2023/06/19 09:53:59;;;;;;;2.10;1.40;;;35.80;37.20;;;;;;5015690;28;20399;-72
2023/06/19 09:56:26;;;;;;;1.30;1.20;;;35.90;38.10;;;;;;5015531;28;20985;-72
2023/06/19 09:58:56;;;;;;;1.47;1.30;;;35.50;36.00;;;;;;5015465;28;20509;-70
2023/06/19 10:01:23;;;;;;;3.83;1.80;;;34.70;36.00;;;;;;5015175;28;20414;-71
2023/06/19 10:03:48;;;;;;;1.40;1.30;;;34.80;35.80;;;;;;5015403;28;20789;-72
2023/06/19 10:06:16;;;;;;;1.53;1.43;;;34.80;35.00;;;;;;5015546;28;20414;-71
2023/06/19 10:08:44;;;;;;;2.30;1.67;;;34.80;35.50;;;;;;5014826;28;20234;-69
2023/06/19 10:11:13;;;;;;;1.30;1.20;;;34.90;36.00;;;;;;5014936;28;20457;-73
2023/06/19 10:13:41;;;;;;;1.60;1.50;;;34.50;35.70;;;;;;5015154;28;20486;-71
2023/06/19 10:16:18;;;;;;;1.43;1.33;;;34.50;37.40;;;;;;5014949;28;20407;-72
2023/06/19 10:18:48;;;;;;;1.93;1.50;;;34.20;34.80;;;;;;5014884;28;20433;-71
2023/06/19 10:21:18;;;;;;;1.60;1.30;;;34.30;38.60;;;;;;5015366;28;20418;-73
2023/06/19 10:23:57;;;;;;;1.50;1.40;;;33.90;35.50;;;;;;5015075;28;20403;-71
2023/06/19 10:26:33;;;;;;;1.20;1.10;;;33.30;35.50;;;;;;5014956;28;20417;-70
2023/06/19 10:29:00;;;;;;;1.40;1.23;;;33.10;36.50;;;;;;5015090;28;20509;-71
2023/06/19 10:31:28;;;;;;;1.43;1.30;;;32.90;36.90;;;;;;4996854;28;20774;-73
2023/06/19 10:33:54;;;;;;;1.00;0.90;;;32.80;36.30;;;;;;5014687;28;20475;-71
2023/06/19 10:36:31;;;;;;;1.60;1.40;;;33.20;40.10;;;;;;5014713;28;20496;-70
2023/06/19 10:38:56;;;;;;;1.37;1.20;;;33.30;37.90;;;;;;5014793;28;20195;-71
2023/06/19 10:41:25;;;;;;;1.67;1.37;;;33.00;38.70;;;;;;5014371;28;20418;-73
2023/06/19 10:43:59;;;;;;;1.57;1.13;;;33.20;41.30;;;;;;5013859;28;20206;-72
2023/06/19 10:46:30;;;;;;;1.20;1.10;;;33.40;39.30;;;;;;5014488;28;20414;-72
2023/06/19 10:49:00;;;;;;;1.53;1.43;;;33.60;39.30;;;;;;5014316;28;20461;-72
2023/06/19 10:51:27;;;;;;;1.70;1.60;;;33.30;38.30;;;;;;5014339;28;20438;-70
2023/06/19 10:53:55;;;;;;;2.50;1.30;;;33.10;42.30;;;;;;5014430;28;20489;-71
2023/06/19 10:56:21;;;;;;;1.40;1.30;;;32.90;37.60;;;;;;5014306;28;20453;-72
2023/06/19 10:58:47;;;;;;;2.20;1.40;;;32.50;43.70;;;;;;5014114;28;20422;-72
2023/06/19 11:01:13;;;;;;;1.30;1.20;;;32.30;40.90;;;;;;5014104;28;20464;-70
2023/06/19 11:03:38;;;;;;;1.77;1.67;;;32.10;40.90;;;;;;5014273;28;20179;-70
2023/06/19 11:06:04;;;;;;;1.57;1.47;;;30.70;43.10;;;;;;5014204;28;20172;-70
2023/06/19 11:08:30;;;;;;;1.67;1.23;;;30.50;45.30;;;;;;5014233;28;20674;-71
2023/06/19 11:10:56;;;;;;;1.70;1.30;;;30.50;43.50;;;;;;5013918;28;20171;-72
2023/06/19 11:13:21;;;;;;;1.80;1.60;;;30.50;44.20;;;;;;5013979;28;20172;-72
2023/06/19 11:15:51;;;;;;;1.43;1.33;;;30.60;43.10;;;;;;5014050;28;20895;-72
2023/06/19 11:18:18;;;;;;;1.37;1.13;;;30.70;45.70;;;;;;5013928;28;20200;-69
2023/06/19 11:20:51;;;;;;;3.47;2.33;;;30.80;44.40;;;;;;5013850;28;20815;-72
2023/06/19 11:23:28;;;;;;;1.60;1.50;;;31.00;43.00;;;;;;5013620;28;20403;-71
2023/06/19 11:25:56;;;;;;;1.20;0.90;;;31.10;44.70;;;;;;5013883;28;20410;-72
2023/06/19 11:28:22;;;;;;;1.97;1.87;;;31.10;42.10;;;;;;5013579;28;20516;-73
2023/06/19 11:30:49;;;;;;;1.80;1.70;;;31.20;43.10;;;;;;5013851;28;20926;-71
2023/06/19 11:33:22;;;;;;;2.30;1.87;;;31.10;44.50;;;;;;5013661;28;20178;-70
2023/06/19 11:35:54;;;;;;;1.30;1.20;;;31.10;45.10;;;;;;5013649;28;20398;-70
2023/06/19 11:38:22;;;;;;;2.73;1.33;;;30.90;44.40;;;;;;5013495;28;20430;-70
2023/06/19 11:40:48;;;;;;;2.30;1.30;;;30.70;44.60;;;;;;5013816;28;20406;-71
2023/06/19 11:43:34;;;;;;;1.60;1.50;;;30.30;43.70;;;;;;5013581;28;20456;-72
2023/06/19 11:46:05;;;;;;;1.53;1.20;;;30.20;44.70;;;;;;5013496;28;20417;-71
2023/06/19 11:48:31;;;;;;;2.20;1.60;;;30.20;45.30;;;;;;5013487;28;20515;-71
2023/06/19 11:50:56;;;;;;;1.40;1.30;;;30.10;44.90;;;;;;5013599;28;20431;-71
2023/06/19 11:53:24;;;;;;;2.40;2.03;;;30.10;46.90;;;;;;5013756;28;20179;-73
2023/06/19 11:55:50;;;;;;;2.10;1.30;;;30.10;47.20;;;;;;5017739;28;20171;-70
2023/06/19 11:58:16;;;;;;;2.00;1.90;;;29.90;45.10;;;;;;5017556;28;20879;-72
2023/06/19 12:00:42;;;;;;;1.77;1.50;;;29.50;45.60;;;;;;5017529;28;20434;-72
2023/06/19 12:03:09;;;;;;;2.17;1.77;;;29.20;46.90;;;;;;5017392;28;20572;-71
2023/06/19 12:05:35;;;;;;;1.33;1.17;;;29.00;46.80;;;;;;5017567;28;20406;-71
2023/06/19 12:08:02;;;;;;;1.83;1.73;;;29.00;47.80;;;;;;5017136;28;20878;-72
2023/06/19 12:10:28;;;;;;;2.10;2.00;;;29.10;48.20;;;;;;5017566;28;20493;-71
2023/06/19 12:12:54;;;;;;;1.93;1.80;;;29.00;47.00;;;;;;5017106;28;20406;-70
2023/06/19 12:15:19;;;;;;;2.20;2.00;;;28.90;49.10;;;;;;5017222;28;20436;-72
2023/06/19 12:17:46;;;;;;;1.50;1.40;;;28.80;48.70;;;;;;5017184;28;20180;-72
2023/06/19 12:20:13;;;;;;;2.97;2.23;;;28.70;48.00;;;;;;5017254;28;20205;-72
2023/06/19 12:22:39;;;;;;;2.47;2.27;;;28.80;49.10;;;;;;5017091;28;20403;-71
2023/06/19 12:25:05;;;;;;;1.57;1.47;;;28.70;49.30;;;;;;5017092;28;20763;-71
2023/06/19 12:27:31;;;;;;;1.50;1.40;;;28.70;49.20;;;;;;5017018;28;20422;-69
2023/06/19 12:29:57;;;;;;;2.47;2.27;;;28.60;49.80;;;;;;5017315;28;20257;-70
2023/06/19 12:32:23;;;;;;;2.37;2.13;;;28.50;50.60;;;;;;5016865;28;20179;-71
2023/06/19 12:34:53;;;;;;;1.90;1.57;;;28.40;50.00;;;;;;5017019;28;20167;-70
2023/06/19 12:37:20;;;;;;;1.97;1.50;;;28.30;52.20;;;;;;5016934;28;20187;-72
2023/06/19 12:39:46;;;;;;;2.90;2.00;;;28.20;50.10;;;;;;5016782;28;20470;-70
2023/06/19 12:42:12;;;;;;;2.27;2.07;;;28.00;51.00;;;;;;5016707;28;20475;-72
2023/06/19 12:44:40;;;;;;;1.80;1.40;;;27.90;50.50;;;;;;5016777;28;20441;-71
2023/06/19 12:47:06;;;;;;;1.23;1.13;;;27.90;51.30;;;;;;5016619;28;20202;-69